Details for TUI Airlines UK (Thomson) at EGPH




Go Back


Latest METAR
Local Time

EGPH 232350Z 11008KT CAVOK 01/M04 Q1021

24/02/2018, 00:05:36

Description
Results
TUI Airlines UK (Thomson) Logo
Number of Pilots based at EGPH
0 Pilots Based here
Number of TUI Airlines UK (Thomson) Flights Departed from EGPH
0 Flights Departed
Number of TUI Airlines UK (Thomson) Flights Arrived at EGPH
0 Flights Arrived
Number of TUI Airlines UK (Thomson) Schedules Departing from EGPH
4 Schedules
Number of TUI Airlines UK (Thomson) Schedules Arriving at EGPH
5 Schedules
Number of TUI Airlines UK (Thomson) Schedules Departing from EGPH availible today
0 Schedules Today
Number of TUI Airlines UK (Thomson) Schedules Arriving at EGPH availible today
0 Schedules Today
Average Landing Rate at EGPH
-244 fpm
TUI Airlines UK (Thomson) Average Landing Rate at EGPH
0 fpm
Total Fuel Purchased at EGPH by TUI Airlines UK (Thomson)
0.00 kgs / 0.00 lbs

Pilots Based at EGPH


Pilot ID
Pilot Name
Pilot Rank
No. of Flights
No. of Flying Hours
There are no pilots assigned to this hub!   Will you be the first?
Content